sensor_id;sensor_type;location;lat;lon;timestamp;P1;durP1;ratioP1;P2;durP2;ratioP2
47966;SDS011;33733;52.456;13.620;2022-10-22T00:02:25;7.50;;;4.38;;
47966;SDS011;33733;52.456;13.620;2022-10-22T00:04:53;7.22;;;2.70;;
47966;SDS011;33733;52.456;13.620;2022-10-22T00:07:22;8.00;;;4.32;;
47966;SDS011;33733;52.456;13.620;2022-10-22T00:09:48;8.98;;;4.05;;
47966;SDS011;33733;52.456;13.620;2022-10-22T00:12:15;7.22;;;3.20;;
47966;SDS011;33733;52.456;13.620;2022-10-22T00:14:42;7.85;;;3.05;;
47966;SDS011;33733;52.456;13.620;2022-10-22T00:17:09;5.80;;;2.10;;
47966;SDS011;33733;52.456;13.620;2022-10-22T00:19:37;7.00;;;2.70;;
47966;SDS011;33733;52.456;13.620;2022-10-22T00:22:04;8.90;;;3.97;;
47966;SDS011;33733;52.456;13.620;2022-10-22T00:24:32;8.15;;;3.58;;
47966;SDS011;33733;52.456;13.620;2022-10-22T00:26:59;6.60;;;2.85;;
47966;SDS011;33733;52.456;13.620;2022-10-22T00:29:26;7.35;;;2.20;;
47966;SDS011;33733;52.456;13.620;2022-10-22T00:31:53;6.85;;;3.60;;
47966;SDS011;33733;52.456;13.620;2022-10-22T00:34:20;6.60;;;3.92;;
47966;SDS011;33733;52.456;13.620;2022-10-22T00:36:47;7.88;;;2.60;;
47966;SDS011;33733;52.456;13.620;2022-10-22T00:39:16;10.18;;;4.20;;
47966;SDS011;33733;52.456;13.620;2022-10-22T00:41:44;7.15;;;4.30;;
47966;SDS011;33733;52.456;13.620;2022-10-22T00:47:16;7.60;;;3.03;;
47966;SDS011;33733;52.456;13.620;2022-10-22T00:49:44;7.53;;;3.72;;
47966;SDS011;33733;52.456;13.620;2022-10-22T00:52:11;6.68;;;3.67;;
47966;SDS011;33733;52.456;13.620;2022-10-22T00:54:38;6.97;;;3.90;;
47966;SDS011;33733;52.456;13.620;2022-10-22T00:57:05;6.05;;;2.80;;
47966;SDS011;33733;52.456;13.620;2022-10-22T00:59:32;6.22;;;3.45;;
47966;SDS011;33733;52.456;13.620;2022-10-22T01:01:58;7.57;;;2.65;;
47966;SDS011;33733;52.456;13.620;2022-10-22T01:04:25;6.13;;;2.35;;
47966;SDS011;33733;52.456;13.620;2022-10-22T01:06:52;7.15;;;2.50;;
47966;SDS011;33733;52.456;13.620;2022-10-22T01:09:30;5.88;;;2.40;;
47966;SDS011;33733;52.456;13.620;2022-10-22T01:12:06;7.88;;;4.00;;
47966;SDS011;33733;52.456;13.620;2022-10-22T01:14:46;7.68;;;4.28;;
47966;SDS011;33733;52.456;13.620;2022-10-22T01:23:00;5.20;;;2.63;;
47966;SDS011;33733;52.456;13.620;2022-10-22T01:31:08;6.10;;;2.60;;
47966;SDS011;33733;52.456;13.620;2022-10-22T01:33:36;5.97;;;2.75;;
47966;SDS011;33733;52.456;13.620;2022-10-22T01:36:03;6.95;;;2.70;;
47966;SDS011;33733;52.456;13.620;2022-10-22T01:38:30;6.60;;;3.45;;
47966;SDS011;33733;52.456;13.620;2022-10-22T01:40:56;6.93;;;2.65;;
47966;SDS011;33733;52.456;13.620;2022-10-22T01:43:23;7.22;;;3.55;;
47966;SDS011;33733;52.456;13.620;2022-10-22T01:45:50;7.07;;;2.70;;
47966;SDS011;33733;52.456;13.620;2022-10-22T01:48:33;6.18;;;2.50;;
47966;SDS011;33733;52.456;13.620;2022-10-22T02:02:19;7.05;;;3.90;;
47966;SDS011;33733;52.456;13.620;2022-10-22T02:08:09;6.63;;;2.58;;
47966;SDS011;33733;52.456;13.620;2022-10-22T02:10:41;8.65;;;3.88;;
47966;SDS011;33733;52.456;13.620;2022-10-22T02:13:14;7.93;;;4.07;;
47966;SDS011;33733;52.456;13.620;2022-10-22T02:15:46;7.55;;;4.28;;
47966;SDS011;33733;52.456;13.620;2022-10-22T02:18:14;7.35;;;3.67;;
47966;SDS011;33733;52.456;13.620;2022-10-22T02:20:41;7.03;;;2.38;;
47966;SDS011;33733;52.456;13.620;2022-10-22T02:23:08;5.82;;;2.38;;
47966;SDS011;33733;52.456;13.620;2022-10-22T02:25:37;6.55;;;2.55;;
47966;SDS011;33733;52.456;13.620;2022-10-22T02:30:54;6.30;;;2.53;;
47966;SDS011;33733;52.456;13.620;2022-10-22T02:33:42;6.60;;;2.33;;
47966;SDS011;33733;52.456;13.620;2022-10-22T02:36:11;7.57;;;3.75;;
47966;SDS011;33733;52.456;13.620;2022-10-22T02:38:37;7.13;;;3.88;;
47966;SDS011;33733;52.456;13.620;2022-10-22T02:41:05;7.00;;;3.05;;
47966;SDS011;33733;52.456;13.620;2022-10-22T02:43:37;7.18;;;2.67;;
47966;SDS011;33733;52.456;13.620;2022-10-22T02:46:05;7.30;;;2.92;;
47966;SDS011;33733;52.456;13.620;2022-10-22T02:48:32;7.13;;;2.40;;
47966;SDS011;33733;52.456;13.620;2022-10-22T02:50:59;5.38;;;2.03;;
47966;SDS011;33733;52.456;13.620;2022-10-22T02:53:25;6.32;;;2.53;;
47966;SDS011;33733;52.456;13.620;2022-10-22T02:55:51;6.57;;;2.78;;
47966;SDS011;33733;52.456;13.620;2022-10-22T02:58:18;7.22;;;3.00;;
47966;SDS011;33733;52.456;13.620;2022-10-22T03:00:44;6.78;;;2.75;;
47966;SDS011;33733;52.456;13.620;2022-10-22T03:03:11;7.18;;;2.17;;
47966;SDS011;33733;52.456;13.620;2022-10-22T03:05:38;8.55;;;3.30;;
47966;SDS011;33733;52.456;13.620;2022-10-22T03:08:04;7.07;;;2.85;;
47966;SDS011;33733;52.456;13.620;2022-10-22T03:10:31;6.22;;;2.33;;
47966;SDS011;33733;52.456;13.620;2022-10-22T03:12:57;8.43;;;2.97;;
47966;SDS011;33733;52.456;13.620;2022-10-22T03:15:24;8.00;;;3.72;;
47966;SDS011;33733;52.456;13.620;2022-10-22T03:17:50;7.65;;;3.85;;
47966;SDS011;33733;52.456;13.620;2022-10-22T03:20:17;6.55;;;2.15;;
47966;SDS011;33733;52.456;13.620;2022-10-22T03:22:43;7.18;;;3.88;;
47966;SDS011;33733;52.456;13.620;2022-10-22T03:25:11;8.25;;;4.72;;
47966;SDS011;33733;52.456;13.620;2022-10-22T03:27:40;6.35;;;2.58;;
47966;SDS011;33733;52.456;13.620;2022-10-22T03:30:08;8.95;;;4.35;;
47966;SDS011;33733;52.456;13.620;2022-10-22T03:32:35;9.65;;;2.92;;
47966;SDS011;33733;52.456;13.620;2022-10-22T03:35:01;7.10;;;2.65;;
47966;SDS011;33733;52.456;13.620;2022-10-22T03:37:28;7.63;;;2.38;;
47966;SDS011;33733;52.456;13.620;2022-10-22T03:39:55;6.25;;;2.67;;
47966;SDS011;33733;52.456;13.620;2022-10-22T03:42:22;6.85;;;2.60;;
47966;SDS011;33733;52.456;13.620;2022-10-22T03:44:49;6.80;;;2.58;;
47966;SDS011;33733;52.456;13.620;2022-10-22T03:47:16;7.47;;;2.45;;
47966;SDS011;33733;52.456;13.620;2022-10-22T03:49:42;6.88;;;2.30;;
47966;SDS011;33733;52.456;13.620;2022-10-22T03:52:10;6.03;;;2.28;;
47966;SDS011;33733;52.456;13.620;2022-10-22T03:54:38;5.93;;;2.10;;
47966;SDS011;33733;52.456;13.620;2022-10-22T03:57:05;6.50;;;3.47;;
47966;SDS011;33733;52.456;13.620;2022-10-22T03:59:35;6.55;;;2.17;;
47966;SDS011;33733;52.456;13.620;2022-10-22T04:02:08;6.20;;;2.38;;
47966;SDS011;33733;52.456;13.620;2022-10-22T04:04:36;6.07;;;2.20;;
47966;SDS011;33733;52.456;13.620;2022-10-22T04:07:03;7.28;;;3.70;;
47966;SDS011;33733;52.456;13.620;2022-10-22T04:09:31;7.93;;;4.05;;
47966;SDS011;33733;52.456;13.620;2022-10-22T04:11:58;7.68;;;3.35;;
47966;SDS011;33733;52.456;13.620;2022-10-22T04:14:26;8.32;;;4.20;;
47966;SDS011;33733;52.456;13.620;2022-10-22T04:16:52;5.97;;;2.63;;
47966;SDS011;33733;52.456;13.620;2022-10-22T04:19:19;7.28;;;3.78;;
47966;SDS011;33733;52.456;13.620;2022-10-22T04:21:46;8.57;;;2.90;;
47966;SDS011;33733;52.456;13.620;2022-10-22T04:24:13;8.98;;;4.15;;
47966;SDS011;33733;52.456;13.620;2022-10-22T04:26:39;6.82;;;2.63;;
47966;SDS011;33733;52.456;13.620;2022-10-22T04:29:06;8.25;;;4.82;;
47966;SDS011;33733;52.456;13.620;2022-10-22T04:31:40;6.90;;;3.53;;
47966;SDS011;33733;52.456;13.620;2022-10-22T04:34:06;6.80;;;3.53;;
47966;SDS011;33733;52.456;13.620;2022-10-22T04:36:33;6.85;;;2.72;;
47966;SDS011;33733;52.456;13.620;2022-10-22T04:39:00;9.00;;;3.38;;
47966;SDS011;33733;52.456;13.620;2022-10-22T04:41:28;10.25;;;4.45;;
47966;SDS011;33733;52.456;13.620;2022-10-22T04:43:56;7.85;;;3.70;;
47966;SDS011;33733;52.456;13.620;2022-10-22T04:46:24;7.75;;;4.28;;
47966;SDS011;33733;52.456;13.620;2022-10-22T04:48:52;8.32;;;3.10;;
47966;SDS011;33733;52.456;13.620;2022-10-22T04:51:20;6.68;;;2.67;;
47966;SDS011;33733;52.456;13.620;2022-10-22T04:53:48;6.22;;;2.22;;
47966;SDS011;33733;52.456;13.620;2022-10-22T04:56:28;7.78;;;3.13;;
47966;SDS011;33733;52.456;13.620;2022-10-22T04:58:59;7.53;;;2.25;;
47966;SDS011;33733;52.456;13.620;2022-10-22T05:01:28;8.50;;;4.00;;
47966;SDS011;33733;52.456;13.620;2022-10-22T05:03:57;7.35;;;2.55;;
47966;SDS011;33733;52.456;13.620;2022-10-22T05:06:25;7.53;;;2.92;;
47966;SDS011;33733;52.456;13.620;2022-10-22T05:08:53;7.35;;;3.45;;
47966;SDS011;33733;52.456;13.620;2022-10-22T05:11:22;6.63;;;2.47;;
47966;SDS011;33733;52.456;13.620;2022-10-22T05:13:50;11.27;;;4.57;;
47966;SDS011;33733;52.456;13.620;2022-10-22T05:16:17;6.30;;;2.33;;
47966;SDS011;33733;52.456;13.620;2022-10-22T05:18:46;9.18;;;4.28;;
47966;SDS011;33733;52.456;13.620;2022-10-22T05:21:14;7.78;;;3.65;;
47966;SDS011;33733;52.456;13.620;2022-10-22T05:23:43;7.28;;;4.15;;
47966;SDS011;33733;52.456;13.620;2022-10-22T05:26:11;6.88;;;3.40;;
47966;SDS011;33733;52.456;13.620;2022-10-22T05:28:39;7.80;;;4.47;;
47966;SDS011;33733;52.456;13.620;2022-10-22T05:31:06;5.88;;;2.17;;
47966;SDS011;33733;52.456;13.620;2022-10-22T05:33:33;6.40;;;2.22;;
47966;SDS011;33733;52.456;13.620;2022-10-22T05:36:00;6.88;;;2.60;;
47966;SDS011;33733;52.456;13.620;2022-10-22T05:38:28;8.23;;;3.30;;
47966;SDS011;33733;52.456;13.620;2022-10-22T05:40:58;7.53;;;4.05;;
47966;SDS011;33733;52.456;13.620;2022-10-22T05:43:34;6.38;;;2.38;;
47966;SDS011;33733;52.456;13.620;2022-10-22T05:46:01;6.28;;;3.17;;
47966;SDS011;33733;52.456;13.620;2022-10-22T05:48:29;7.35;;;2.97;;
47966;SDS011;33733;52.456;13.620;2022-10-22T05:51:08;9.02;;;2.80;;
47966;SDS011;33733;52.456;13.620;2022-10-22T05:53:49;7.90;;;3.95;;
47966;SDS011;33733;52.456;13.620;2022-10-22T05:56:17;6.22;;;2.30;;
47966;SDS011;33733;52.456;13.620;2022-10-22T05:58:44;7.57;;;3.88;;
47966;SDS011;33733;52.456;13.620;2022-10-22T06:01:21;5.57;;;1.90;;
47966;SDS011;33733;52.456;13.620;2022-10-22T06:03:51;5.97;;;2.25;;
47966;SDS011;33733;52.456;13.620;2022-10-22T06:07:01;8.85;;;3.10;;
47966;SDS011;33733;52.456;13.620;2022-10-22T06:09:24;4.85;;;1.80;;
47966;SDS011;33733;52.456;13.620;2022-10-22T06:11:53;7.25;;;3.28;;
47966;SDS011;33733;52.456;13.620;2022-10-22T06:14:20;8.68;;;3.97;;
47966;SDS011;33733;52.456;13.620;2022-10-22T06:16:47;6.30;;;3.67;;
47966;SDS011;33733;52.456;13.620;2022-10-22T06:19:15;7.43;;;3.88;;
47966;SDS011;33733;52.456;13.620;2022-10-22T06:21:43;6.03;;;2.13;;
47966;SDS011;33733;52.456;13.620;2022-10-22T06:24:10;7.97;;;4.20;;
47966;SDS011;33733;52.456;13.620;2022-10-22T06:26:37;8.23;;;3.80;;
47966;SDS011;33733;52.456;13.620;2022-10-22T06:29:04;5.93;;;3.00;;
47966;SDS011;33733;52.456;13.620;2022-10-22T06:31:31;6.13;;;3.35;;
47966;SDS011;33733;52.456;13.620;2022-10-22T06:34:07;7.05;;;2.80;;
47966;SDS011;33733;52.456;13.620;2022-10-22T06:36:37;8.10;;;3.33;;
47966;SDS011;33733;52.456;13.620;2022-10-22T06:39:04;5.68;;;2.20;;
47966;SDS011;33733;52.456;13.620;2022-10-22T06:41:30;7.25;;;4.10;;
47966;SDS011;33733;52.456;13.620;2022-10-22T06:43:57;5.75;;;2.20;;
47966;SDS011;33733;52.456;13.620;2022-10-22T06:46:23;6.50;;;3.92;;
47966;SDS011;33733;52.456;13.620;2022-10-22T06:48:52;6.93;;;3.60;;
47966;SDS011;33733;52.456;13.620;2022-10-22T06:51:23;6.82;;;2.67;;
47966;SDS011;33733;52.456;13.620;2022-10-22T06:53:50;6.05;;;2.15;;
47966;SDS011;33733;52.456;13.620;2022-10-22T06:56:17;7.30;;;3.75;;
47966;SDS011;33733;52.456;13.620;2022-10-22T06:58:46;6.47;;;2.38;;
47966;SDS011;33733;52.456;13.620;2022-10-22T07:01:15;7.88;;;1.98;;
47966;SDS011;33733;52.456;13.620;2022-10-22T07:03:42;7.18;;;2.20;;
47966;SDS011;33733;52.456;13.620;2022-10-22T07:06:10;8.20;;;3.85;;
47966;SDS011;33733;52.456;13.620;2022-10-22T07:08:39;7.43;;;3.33;;
47966;SDS011;33733;52.456;13.620;2022-10-22T07:13:33;7.03;;;2.63;;
47966;SDS011;33733;52.456;13.620;2022-10-22T07:15:59;8.25;;;4.70;;
47966;SDS011;33733;52.456;13.620;2022-10-22T07:18:26;10.65;;;4.10;;
47966;SDS011;33733;52.456;13.620;2022-10-22T07:20:52;7.78;;;2.38;;
47966;SDS011;33733;52.456;13.620;2022-10-22T07:23:19;5.88;;;3.13;;
47966;SDS011;33733;52.456;13.620;2022-10-22T07:25:45;7.60;;;3.88;;
47966;SDS011;33733;52.456;13.620;2022-10-22T07:28:12;6.35;;;2.38;;
47966;SDS011;33733;52.456;13.620;2022-10-22T07:30:39;6.90;;;3.47;;
47966;SDS011;33733;52.456;13.620;2022-10-22T07:33:06;5.93;;;1.85;;
47966;SDS011;33733;52.456;13.620;2022-10-22T07:35:32;6.93;;;2.83;;
47966;SDS011;33733;52.456;13.620;2022-10-22T07:37:59;7.68;;;2.95;;
47966;SDS011;33733;52.456;13.620;2022-10-22T07:40:26;5.80;;;2.38;;
47966;SDS011;33733;52.456;13.620;2022-10-22T07:42:53;6.25;;;3.05;;
47966;SDS011;33733;52.456;13.620;2022-10-22T07:45:19;7.18;;;3.60;;
47966;SDS011;33733;52.456;13.620;2022-10-22T07:47:46;6.47;;;3.35;;
47966;SDS011;33733;52.456;13.620;2022-10-22T07:50:13;8.55;;;4.90;;
47966;SDS011;33733;52.456;13.620;2022-10-22T07:52:40;6.97;;;2.88;;
47966;SDS011;33733;52.456;13.620;2022-10-22T07:55:07;7.50;;;4.43;;
47966;SDS011;33733;52.456;13.620;2022-10-22T07:57:34;6.47;;;2.50;;
47966;SDS011;33733;52.456;13.620;2022-10-22T08:00:06;6.93;;;4.10;;
47966;SDS011;33733;52.456;13.620;2022-10-22T08:02:39;7.13;;;3.17;;
47966;SDS011;33733;52.456;13.620;2022-10-22T08:05:06;6.90;;;4.10;;
47966;SDS011;33733;52.456;13.620;2022-10-22T08:07:33;9.45;;;4.47;;
47966;SDS011;33733;52.456;13.620;2022-10-22T08:09:59;7.72;;;4.28;;
47966;SDS011;33733;52.456;13.620;2022-10-22T08:12:25;7.03;;;3.38;;
47966;SDS011;33733;52.456;13.620;2022-10-22T08:14:52;8.43;;;3.72;;
47966;SDS011;33733;52.456;13.620;2022-10-22T08:17:19;7.55;;;4.18;;
47966;SDS011;33733;52.456;13.620;2022-10-22T08:19:45;8.52;;;3.67;;
47966;SDS011;33733;52.456;13.620;2022-10-22T08:22:12;6.40;;;2.97;;
47966;SDS011;33733;52.456;13.620;2022-10-22T08:24:38;7.75;;;3.20;;
47966;SDS011;33733;52.456;13.620;2022-10-22T08:27:05;8.98;;;3.50;;
47966;SDS011;33733;52.456;13.620;2022-10-22T08:29:31;8.65;;;5.20;;
47966;SDS011;33733;52.456;13.620;2022-10-22T08:31:58;7.72;;;4.57;;
47966;SDS011;33733;52.456;13.620;2022-10-22T08:34:24;10.70;;;5.28;;
47966;SDS011;33733;52.456;13.620;2022-10-22T08:36:51;7.85;;;3.25;;
47966;SDS011;33733;52.456;13.620;2022-10-22T08:39:17;8.02;;;3.10;;
47966;SDS011;33733;52.456;13.620;2022-10-22T08:41:48;8.32;;;4.82;;
47966;SDS011;33733;52.456;13.620;2022-10-22T08:44:35;8.93;;;5.80;;
47966;SDS011;33733;52.456;13.620;2022-10-22T08:50:12;9.60;;;4.07;;
47966;SDS011;33733;52.456;13.620;2022-10-22T08:52:43;8.13;;;4.63;;
47966;SDS011;33733;52.456;13.620;2022-10-22T08:55:12;9.63;;;4.60;;
47966;SDS011;33733;52.456;13.620;2022-10-22T09:08:28;7.10;;;2.75;;
47966;SDS011;33733;52.456;13.620;2022-10-22T09:11:05;8.57;;;2.80;;
47966;SDS011;33733;52.456;13.620;2022-10-22T09:13:34;8.95;;;4.90;;
47966;SDS011;33733;52.456;13.620;2022-10-22T09:16:10;7.47;;;4.35;;
47966;SDS011;33733;52.456;13.620;2022-10-22T09:18:43;10.40;;;3.42;;
47966;SDS011;33733;52.456;13.620;2022-10-22T09:24:10;7.57;;;3.05;;
47966;SDS011;33733;52.456;13.620;2022-10-22T09:29:05;7.88;;;2.80;;
47966;SDS011;33733;52.456;13.620;2022-10-22T09:31:32;8.55;;;3.28;;
47966;SDS011;33733;52.456;13.620;2022-10-22T09:33:59;7.60;;;3.15;;
47966;SDS011;33733;52.456;13.620;2022-10-22T09:36:31;8.80;;;3.40;;
47966;SDS011;33733;52.456;13.620;2022-10-22T09:38:58;10.65;;;4.72;;
47966;SDS011;33733;52.456;13.620;2022-10-22T09:41:26;10.00;;;5.68;;
47966;SDS011;33733;52.456;13.620;2022-10-22T09:43:57;7.65;;;3.13;;
47966;SDS011;33733;52.456;13.620;2022-10-22T09:46:28;11.88;;;5.25;;
47966;SDS011;33733;52.456;13.620;2022-10-22T09:49:03;6.65;;;2.88;;
47966;SDS011;33733;52.456;13.620;2022-10-22T09:51:52;9.05;;;4.45;;
47966;SDS011;33733;52.456;13.620;2022-10-22T09:54:23;8.45;;;3.08;;
47966;SDS011;33733;52.456;13.620;2022-10-22T09:56:53;8.48;;;2.85;;
47966;SDS011;33733;52.456;13.620;2022-10-22T09:59:26;8.23;;;4.70;;
47966;SDS011;33733;52.456;13.620;2022-10-22T10:01:57;7.10;;;3.63;;
47966;SDS011;33733;52.456;13.620;2022-10-22T10:04:46;8.57;;;5.53;;
47966;SDS011;33733;52.456;13.620;2022-10-22T10:07:16;7.25;;;3.15;;
47966;SDS011;33733;52.456;13.620;2022-10-22T10:09:44;7.95;;;4.55;;
47966;SDS011;33733;52.456;13.620;2022-10-22T10:21:08;8.02;;;4.13;;
47966;SDS011;33733;52.456;13.620;2022-10-22T10:24:02;8.90;;;5.50;;
47966;SDS011;33733;52.456;13.620;2022-10-22T10:26:44;7.20;;;3.92;;
47966;SDS011;33733;52.456;13.620;2022-10-22T10:32:23;8.45;;;4.88;;
47966;SDS011;33733;52.456;13.620;2022-10-22T10:35:17;7.15;;;4.22;;
47966;SDS011;33733;52.456;13.620;2022-10-22T10:45:56;7.25;;;3.00;;
47966;SDS011;33733;52.456;13.620;2022-10-22T10:48:44;6.50;;;3.00;;
47966;SDS011;33733;52.456;13.620;2022-10-22T10:51:28;7.13;;;3.03;;
47966;SDS011;33733;52.456;13.620;2022-10-22T10:56:57;6.78;;;3.63;;
47966;SDS011;33733;52.456;13.620;2022-10-22T10:59:43;8.63;;;5.25;;
47966;SDS011;33733;52.456;13.620;2022-10-22T11:07:24;6.82;;;2.40;;
47966;SDS011;33733;52.456;13.620;2022-10-22T11:10:02;7.65;;;3.05;;
47966;SDS011;33733;52.456;13.620;2022-10-22T11:12:35;6.88;;;2.35;;
47966;SDS011;33733;52.456;13.620;2022-10-22T11:15:08;7.53;;;4.00;;
47966;SDS011;33733;52.456;13.620;2022-10-22T11:21:00;8.23;;;3.65;;
47966;SDS011;33733;52.456;13.620;2022-10-22T11:23:38;8.02;;;2.42;;
47966;SDS011;33733;52.456;13.620;2022-10-22T11:26:11;7.25;;;3.78;;
47966;SDS011;33733;52.456;13.620;2022-10-22T11:28:52;7.28;;;2.95;;
47966;SDS011;33733;52.456;13.620;2022-10-22T11:31:22;8.90;;;3.53;;
47966;SDS011;33733;52.456;13.620;2022-10-22T11:36:35;9.68;;;3.85;;
47966;SDS011;33733;52.456;13.620;2022-10-22T11:39:02;7.78;;;3.55;;
47966;SDS011;33733;52.456;13.620;2022-10-22T11:41:29;9.38;;;4.53;;
47966;SDS011;33733;52.456;13.620;2022-10-22T11:46:26;7.65;;;3.75;;
47966;SDS011;33733;52.456;13.620;2022-10-22T11:51:39;10.95;;;6.40;;
47966;SDS011;33733;52.456;13.620;2022-10-22T11:57:14;10.75;;;4.40;;
47966;SDS011;33733;52.456;13.620;2022-10-22T12:07:55;6.95;;;2.83;;
47966;SDS011;33733;52.456;13.620;2022-10-22T12:10:27;7.93;;;4.68;;
47966;SDS011;33733;52.456;13.620;2022-10-22T12:13:14;9.05;;;3.22;;
47966;SDS011;33733;52.456;13.620;2022-10-22T12:15:50;9.05;;;4.50;;
47966;SDS011;33733;52.456;13.620;2022-10-22T12:18:21;6.90;;;3.17;;
47966;SDS011;33733;52.456;13.620;2022-10-22T12:20:50;8.60;;;4.80;;
47966;SDS011;33733;52.456;13.620;2022-10-22T12:23:18;7.32;;;3.33;;
47966;SDS011;33733;52.456;13.620;2022-10-22T12:25:47;8.75;;;3.67;;
47966;SDS011;33733;52.456;13.620;2022-10-22T12:28:13;7.88;;;4.13;;
47966;SDS011;33733;52.456;13.620;2022-10-22T12:30:41;7.63;;;4.47;;
47966;SDS011;33733;52.456;13.620;2022-10-22T12:33:16;9.20;;;5.70;;
47966;SDS011;33733;52.456;13.620;2022-10-22T12:35:48;6.35;;;2.70;;
47966;SDS011;33733;52.456;13.620;2022-10-22T12:38:19;9.13;;;3.75;;
47966;SDS011;33733;52.456;13.620;2022-10-22T12:40:48;7.22;;;2.90;;
47966;SDS011;33733;52.456;13.620;2022-10-22T12:43:17;7.65;;;4.07;;
47966;SDS011;33733;52.456;13.620;2022-10-22T12:45:46;5.93;;;2.35;;
47966;SDS011;33733;52.456;13.620;2022-10-22T12:50:51;5.57;;;2.08;;
47966;SDS011;33733;52.456;13.620;2022-10-22T12:53:33;6.78;;;3.65;;
47966;SDS011;33733;52.456;13.620;2022-10-22T12:56:05;4.95;;;1.98;;
47966;SDS011;33733;52.456;13.620;2022-10-22T12:58:44;5.60;;;1.60;;
47966;SDS011;33733;52.456;13.620;2022-10-22T13:01:14;5.07;;;1.20;;
47966;SDS011;33733;52.456;13.620;2022-10-22T13:03:43;5.15;;;2.42;;
47966;SDS011;33733;52.456;13.620;2022-10-22T13:08:44;4.32;;;1.23;;
47966;SDS011;33733;52.456;13.620;2022-10-22T13:11:21;5.00;;;1.58;;
47966;SDS011;33733;52.456;13.620;2022-10-22T13:13:47;6.07;;;2.53;;
47966;SDS011;33733;52.456;13.620;2022-10-22T13:16:15;5.20;;;2.72;;
47966;SDS011;33733;52.456;13.620;2022-10-22T13:18:46;4.78;;;0.93;;
47966;SDS011;33733;52.456;13.620;2022-10-22T13:24:01;4.20;;;1.67;;
47966;SDS011;33733;52.456;13.620;2022-10-22T13:26:35;4.00;;;1.90;;
47966;SDS011;33733;52.456;13.620;2022-10-22T13:29:08;4.05;;;0.77;;
47966;SDS011;33733;52.456;13.620;2022-10-22T13:31:35;3.10;;;0.82;;
47966;SDS011;33733;52.456;13.620;2022-10-22T13:34:04;4.25;;;1.92;;
47966;SDS011;33733;52.456;13.620;2022-10-22T13:36:38;3.95;;;0.75;;
47966;SDS011;33733;52.456;13.620;2022-10-22T13:39:05;5.90;;;1.17;;
47966;SDS011;33733;52.456;13.620;2022-10-22T13:44:03;2.22;;;0.50;;
47966;SDS011;33733;52.456;13.620;2022-10-22T13:46:29;3.05;;;0.60;;
47966;SDS011;33733;52.456;13.620;2022-10-22T13:48:56;5.40;;;1.67;;
47966;SDS011;33733;52.456;13.620;2022-10-22T13:51:31;2.78;;;0.68;;
47966;SDS011;33733;52.456;13.620;2022-10-22T13:54:00;3.65;;;0.80;;
47966;SDS011;33733;52.456;13.620;2022-10-22T13:56:26;3.00;;;0.70;;
47966;SDS011;33733;52.456;13.620;2022-10-22T13:58:53;3.72;;;1.70;;
47966;SDS011;33733;52.456;13.620;2022-10-22T14:01:21;3.38;;;1.67;;
47966;SDS011;33733;52.456;13.620;2022-10-22T14:03:49;2.10;;;0.52;;
47966;SDS011;33733;52.456;13.620;2022-10-22T14:06:17;3.60;;;1.70;;
47966;SDS011;33733;52.456;13.620;2022-10-22T14:08:46;4.60;;;0.90;;
47966;SDS011;33733;52.456;13.620;2022-10-22T14:11:16;3.53;;;0.88;;
47966;SDS011;33733;52.456;13.620;2022-10-22T14:13:43;4.15;;;1.55;;
47966;SDS011;33733;52.456;13.620;2022-10-22T14:16:14;2.45;;;0.60;;
47966;SDS011;33733;52.456;13.620;2022-10-22T14:18:43;1.90;;;0.52;;
47966;SDS011;33733;52.456;13.620;2022-10-22T14:21:10;5.70;;;1.75;;
47966;SDS011;33733;52.456;13.620;2022-10-22T14:23:39;5.35;;;1.35;;
47966;SDS011;33733;52.456;13.620;2022-10-22T14:26:07;3.50;;;0.60;;
47966;SDS011;33733;52.456;13.620;2022-10-22T14:28:36;3.42;;;0.77;;
47966;SDS011;33733;52.456;13.620;2022-10-22T14:31:17;3.67;;;1.52;;
47966;SDS011;33733;52.456;13.620;2022-10-22T14:33:43;3.10;;;0.90;;
47966;SDS011;33733;52.456;13.620;2022-10-22T14:36:13;3.58;;;1.55;;
47966;SDS011;33733;52.456;13.620;2022-10-22T14:38:41;3.97;;;1.35;;
47966;SDS011;33733;52.456;13.620;2022-10-22T14:41:19;3.70;;;1.10;;
47966;SDS011;33733;52.456;13.620;2022-10-22T14:43:47;4.97;;;1.83;;
47966;SDS011;33733;52.456;13.620;2022-10-22T14:46:14;5.28;;;1.75;;
47966;SDS011;33733;52.456;13.620;2022-10-22T14:48:42;3.42;;;1.40;;
47966;SDS011;33733;52.456;13.620;2022-10-22T14:51:10;4.45;;;1.45;;
47966;SDS011;33733;52.456;13.620;2022-10-22T14:53:38;3.25;;;1.13;;
47966;SDS011;33733;52.456;13.620;2022-10-22T14:56:05;2.60;;;0.65;;
47966;SDS011;33733;52.456;13.620;2022-10-22T14:58:32;4.78;;;1.55;;
47966;SDS011;33733;52.456;13.620;2022-10-22T15:01:00;4.18;;;1.02;;
47966;SDS011;33733;52.456;13.620;2022-10-22T15:03:27;4.70;;;2.03;;
47966;SDS011;33733;52.456;13.620;2022-10-22T15:05:54;3.17;;;0.70;;
47966;SDS011;33733;52.456;13.620;2022-10-22T15:08:21;3.47;;;0.52;;
47966;SDS011;33733;52.456;13.620;2022-10-22T15:10:57;3.97;;;1.77;;
47966;SDS011;33733;52.456;13.620;2022-10-22T15:13:25;3.72;;;1.67;;
47966;SDS011;33733;52.456;13.620;2022-10-22T15:15:52;3.28;;;0.70;;
47966;SDS011;33733;52.456;13.620;2022-10-22T15:18:19;5.00;;;1.05;;
47966;SDS011;33733;52.456;13.620;2022-10-22T15:20:52;6.82;;;2.78;;
47966;SDS011;33733;52.456;13.620;2022-10-22T15:23:20;4.75;;;1.83;;
47966;SDS011;33733;52.456;13.620;2022-10-22T15:25:47;4.95;;;2.53;;
47966;SDS011;33733;52.456;13.620;2022-10-22T15:28:13;6.15;;;2.03;;
47966;SDS011;33733;52.456;13.620;2022-10-22T15:30:40;13.68;;;6.95;;
47966;SDS011;33733;52.456;13.620;2022-10-22T15:33:06;13.00;;;6.97;;
47966;SDS011;33733;52.456;13.620;2022-10-22T15:35:33;17.92;;;9.18;;
47966;SDS011;33733;52.456;13.620;2022-10-22T15:37:59;14.55;;;6.57;;
47966;SDS011;33733;52.456;13.620;2022-10-22T15:40:26;13.60;;;6.95;;
47966;SDS011;33733;52.456;13.620;2022-10-22T15:42:52;13.55;;;5.25;;
47966;SDS011;33733;52.456;13.620;2022-10-22T15:45:19;11.75;;;5.65;;
47966;SDS011;33733;52.456;13.620;2022-10-22T15:47:47;11.23;;;6.32;;
47966;SDS011;33733;52.456;13.620;2022-10-22T15:50:14;12.35;;;6.45;;
47966;SDS011;33733;52.456;13.620;2022-10-22T15:52:41;10.65;;;3.15;;
47966;SDS011;33733;52.456;13.620;2022-10-22T15:55:08;10.18;;;5.50;;
47966;SDS011;33733;52.456;13.620;2022-10-22T15:57:36;9.70;;;3.78;;
47966;SDS011;33733;52.456;13.620;2022-10-22T16:00:04;12.00;;;3.83;;
47966;SDS011;33733;52.456;13.620;2022-10-22T16:02:37;11.18;;;4.90;;
47966;SDS011;33733;52.456;13.620;2022-10-22T16:05:04;11.40;;;5.07;;
47966;SDS011;33733;52.456;13.620;2022-10-22T16:07:31;8.05;;;3.10;;
47966;SDS011;33733;52.456;13.620;2022-10-22T16:09:57;9.65;;;4.53;;
47966;SDS011;33733;52.456;13.620;2022-10-22T16:12:25;10.77;;;4.60;;
47966;SDS011;33733;52.456;13.620;2022-10-22T16:14:52;7.65;;;2.80;;
47966;SDS011;33733;52.456;13.620;2022-10-22T16:17:18;7.88;;;2.80;;
47966;SDS011;33733;52.456;13.620;2022-10-22T16:19:46;8.60;;;4.72;;
47966;SDS011;33733;52.456;13.620;2022-10-22T16:22:12;8.13;;;3.25;;
47966;SDS011;33733;52.456;13.620;2022-10-22T16:24:40;7.68;;;3.08;;
47966;SDS011;33733;52.456;13.620;2022-10-22T16:27:07;5.38;;;1.75;;
47966;SDS011;33733;52.456;13.620;2022-10-22T16:29:35;5.82;;;1.55;;
47966;SDS011;33733;52.456;13.620;2022-10-22T16:32:03;7.32;;;3.08;;
47966;SDS011;33733;52.456;13.620;2022-10-22T16:34:30;4.57;;;1.02;;
47966;SDS011;33733;52.456;13.620;2022-10-22T16:36:57;7.90;;;2.28;;
47966;SDS011;33733;52.456;13.620;2022-10-22T16:39:23;4.95;;;1.08;;
47966;SDS011;33733;52.456;13.620;2022-10-22T16:41:50;5.35;;;1.65;;